sensor_id;sensor_type;location;lat;lon;timestamp;temperature;humidity
26691;DHT22;14307;51.718;8.938;2022-08-14T00:01:47;20.20;99.90
26691;DHT22;14307;51.718;8.938;2022-08-14T00:04:22;20.20;99.90
26691;DHT22;14307;51.718;8.938;2022-08-14T00:07:10;20.10;99.90
26691;DHT22;14307;51.718;8.938;2022-08-14T00:09:40;20.00;99.90
26691;DHT22;14307;51.718;8.938;2022-08-14T00:12:28;19.80;99.90
26691;DHT22;14307;51.718;8.938;2022-08-14T00:15:20;19.60;99.90
26691;DHT22;14307;51.718;8.938;2022-08-14T00:17:49;19.50;99.90
26691;DHT22;14307;51.718;8.938;2022-08-14T00:20:22;19.60;99.90
26691;DHT22;14307;51.718;8.938;2022-08-14T00:23:02;19.50;99.90
26691;DHT22;14307;51.718;8.938;2022-08-14T00:25:40;19.40;99.90
26691;DHT22;14307;51.718;8.938;2022-08-14T00:28:10;19.20;99.90
26691;DHT22;14307;51.718;8.938;2022-08-14T00:30:44;19.10;99.90
26691;DHT22;14307;51.718;8.938;2022-08-14T00:33:11;19.10;99.90
26691;DHT22;14307;51.718;8.938;2022-08-14T00:35:43;19.00;99.90
26691;DHT22;14307;51.718;8.938;2022-08-14T00:38:31;19.00;99.90
26691;DHT22;14307;51.718;8.938;2022-08-14T00:41:01;18.80;99.90
26691;DHT22;14307;51.718;8.938;2022-08-14T00:43:28;18.70;99.90
26691;DHT22;14307;51.718;8.938;2022-08-14T00:46:05;18.70;99.90
26691;DHT22;14307;51.718;8.938;2022-08-14T00:48:35;18.60;99.90
26691;DHT22;14307;51.718;8.938;2022-08-14T00:51:06;18.60;99.90
26691;DHT22;14307;51.718;8.938;2022-08-14T00:53:35;18.50;99.90
26691;DHT22;14307;51.718;8.938;2022-08-14T00:56:04;18.50;99.90
26691;DHT22;14307;51.718;8.938;2022-08-14T00:58:36;18.60;99.90
26691;DHT22;14307;51.718;8.938;2022-08-14T01:01:14;18.70;99.90
26691;DHT22;14307;51.718;8.938;2022-08-14T01:03:43;18.70;99.90
26691;DHT22;14307;51.718;8.938;2022-08-14T01:06:12;18.50;99.90
26691;DHT22;14307;51.718;8.938;2022-08-14T01:08:44;18.50;99.90
26691;DHT22;14307;51.718;8.938;2022-08-14T01:11:26;18.40;99.90
26691;DHT22;14307;51.718;8.938;2022-08-14T01:14:02;18.30;99.90
26691;DHT22;14307;51.718;8.938;2022-08-14T01:16:49;18.30;99.90
26691;DHT22;14307;51.718;8.938;2022-08-14T01:19:21;18.20;99.90
26691;DHT22;14307;51.718;8.938;2022-08-14T01:22:08;18.10;99.90
26691;DHT22;14307;51.718;8.938;2022-08-14T01:24:40;18.10;99.90
26691;DHT22;14307;51.718;8.938;2022-08-14T01:27:19;18.00;99.90
26691;DHT22;14307;51.718;8.938;2022-08-14T01:29:49;18.10;99.90
26691;DHT22;14307;51.718;8.938;2022-08-14T01:32:31;17.90;99.90
26691;DHT22;14307;51.718;8.938;2022-08-14T01:35:08;17.80;99.90
26691;DHT22;14307;51.718;8.938;2022-08-14T01:37:56;17.80;99.90
26691;DHT22;14307;51.718;8.938;2022-08-14T01:40:27;17.80;99.90
26691;DHT22;14307;51.718;8.938;2022-08-14T01:43:13;17.90;99.90
26691;DHT22;14307;51.718;8.938;2022-08-14T01:45:41;17.80;99.90
26691;DHT22;14307;51.718;8.938;2022-08-14T01:48:28;17.90;99.90
26691;DHT22;14307;51.718;8.938;2022-08-14T01:50:59;17.80;99.90
26691;DHT22;14307;51.718;8.938;2022-08-14T01:53:28;17.80;99.90
26691;DHT22;14307;51.718;8.938;2022-08-14T01:56:03;17.90;99.90
26691;DHT22;14307;51.718;8.938;2022-08-14T01:58:38;17.90;99.90
26691;DHT22;14307;51.718;8.938;2022-08-14T02:01:23;17.70;99.90
26691;DHT22;14307;51.718;8.938;2022-08-14T02:03:52;17.60;99.90
26691;DHT22;14307;51.718;8.938;2022-08-14T02:06:23;17.60;99.90
26691;DHT22;14307;51.718;8.938;2022-08-14T02:08:59;17.60;99.90
26691;DHT22;14307;51.718;8.938;2022-08-14T02:11:44;17.60;99.90
26691;DHT22;14307;51.718;8.938;2022-08-14T02:14:13;17.60;99.90
26691;DHT22;14307;51.718;8.938;2022-08-14T02:16:56;17.50;99.90
26691;DHT22;14307;51.718;8.938;2022-08-14T02:19:28;17.60;99.90
26691;DHT22;14307;51.718;8.938;2022-08-14T02:21:59;17.60;99.90
26691;DHT22;14307;51.718;8.938;2022-08-14T02:24:29;17.50;99.90
26691;DHT22;14307;51.718;8.938;2022-08-14T02:27:06;17.50;99.90
26691;DHT22;14307;51.718;8.938;2022-08-14T02:29:54;17.30;99.90
26691;DHT22;14307;51.718;8.938;2022-08-14T02:32:30;17.30;99.90
26691;DHT22;14307;51.718;8.938;2022-08-14T02:35:09;17.30;99.90
26691;DHT22;14307;51.718;8.938;2022-08-14T02:37:48;17.20;99.90
26691;DHT22;14307;51.718;8.938;2022-08-14T02:40:17;17.20;99.90
26691;DHT22;14307;51.718;8.938;2022-08-14T02:42:46;17.20;99.90
26691;DHT22;14307;51.718;8.938;2022-08-14T02:45:26;17.30;99.90
26691;DHT22;14307;51.718;8.938;2022-08-14T02:48:11;17.10;99.90
26691;DHT22;14307;51.718;8.938;2022-08-14T02:50:59;17.20;99.90
26691;DHT22;14307;51.718;8.938;2022-08-14T02:53:28;17.00;99.90
26691;DHT22;14307;51.718;8.938;2022-08-14T02:55:56;17.00;99.90
26691;DHT22;14307;51.718;8.938;2022-08-14T02:58:29;17.20;99.90
26691;DHT22;14307;51.718;8.938;2022-08-14T03:00:58;17.30;99.90
26691;DHT22;14307;51.718;8.938;2022-08-14T03:03:27;17.50;99.90
26691;DHT22;14307;51.718;8.938;2022-08-14T03:05:57;17.60;99.90
26691;DHT22;14307;51.718;8.938;2022-08-14T03:08:24;17.60;99.90
26691;DHT22;14307;51.718;8.938;2022-08-14T03:10:59;17.70;99.90
26691;DHT22;14307;51.718;8.938;2022-08-14T03:13:26;17.90;99.90
26691;DHT22;14307;51.718;8.938;2022-08-14T03:15:55;18.00;99.90
26691;DHT22;14307;51.718;8.938;2022-08-14T03:18:27;18.10;99.90
26691;DHT22;14307;51.718;8.938;2022-08-14T03:21:04;18.20;99.90
26691;DHT22;14307;51.718;8.938;2022-08-14T03:23:31;18.20;99.90
26691;DHT22;14307;51.718;8.938;2022-08-14T03:26:11;18.20;99.90
26691;DHT22;14307;51.718;8.938;2022-08-14T03:28:56;18.10;99.90
26691;DHT22;14307;51.718;8.938;2022-08-14T03:31:27;18.10;99.90
26691;DHT22;14307;51.718;8.938;2022-08-14T03:33:56;18.10;99.90
26691;DHT22;14307;51.718;8.938;2022-08-14T03:36:26;18.00;99.90
26691;DHT22;14307;51.718;8.938;2022-08-14T03:39:13;18.10;99.90
26691;DHT22;14307;51.718;8.938;2022-08-14T03:41:53;18.00;99.90
26691;DHT22;14307;51.718;8.938;2022-08-14T03:44:21;18.10;99.90
26691;DHT22;14307;51.718;8.938;2022-08-14T03:47:07;18.00;99.90
26691;DHT22;14307;51.718;8.938;2022-08-14T03:49:37;17.90;99.90
26691;DHT22;14307;51.718;8.938;2022-08-14T03:52:09;17.80;99.90
26691;DHT22;14307;51.718;8.938;2022-08-14T03:54:56;17.80;99.90
26691;DHT22;14307;51.718;8.938;2022-08-14T03:57:24;17.80;99.90
26691;DHT22;14307;51.718;8.938;2022-08-14T03:59:51;17.70;99.90
26691;DHT22;14307;51.718;8.938;2022-08-14T04:02:17;17.60;99.90
26691;DHT22;14307;51.718;8.938;2022-08-14T04:05:07;17.50;99.90
26691;DHT22;14307;51.718;8.938;2022-08-14T04:07:39;17.70;99.90
26691;DHT22;14307;51.718;8.938;2022-08-14T04:10:25;17.70;99.90
26691;DHT22;14307;51.718;8.938;2022-08-14T04:12:59;17.80;99.90
26691;DHT22;14307;51.718;8.938;2022-08-14T04:15:30;17.80;99.90
26691;DHT22;14307;51.718;8.938;2022-08-14T04:18:03;17.90;99.90
26691;DHT22;14307;51.718;8.938;2022-08-14T04:20:34;17.80;99.90
26691;DHT22;14307;51.718;8.938;2022-08-14T04:23:17;17.90;99.90
26691;DHT22;14307;51.718;8.938;2022-08-14T04:25:49;17.90;99.90
26691;DHT22;14307;51.718;8.938;2022-08-14T04:28:20;17.90;99.90
26691;DHT22;14307;51.718;8.938;2022-08-14T04:31:07;17.90;99.90
26691;DHT22;14307;51.718;8.938;2022-08-14T04:33:33;17.90;99.90
26691;DHT22;14307;51.718;8.938;2022-08-14T04:36:02;17.90;99.90
26691;DHT22;14307;51.718;8.938;2022-08-14T04:38:29;17.90;99.90
26691;DHT22;14307;51.718;8.938;2022-08-14T04:41:15;17.90;99.90
26691;DHT22;14307;51.718;8.938;2022-08-14T04:44:03;17.90;99.90
26691;DHT22;14307;51.718;8.938;2022-08-14T04:46:33;17.90;99.90
26691;DHT22;14307;51.718;8.938;2022-08-14T04:49:20;18.00;99.90
26691;DHT22;14307;51.718;8.938;2022-08-14T04:51:48;18.00;99.90
26691;DHT22;14307;51.718;8.938;2022-08-14T04:54:23;18.00;99.90
26691;DHT22;14307;51.718;8.938;2022-08-14T04:56:53;18.00;99.90
26691;DHT22;14307;51.718;8.938;2022-08-14T04:59:22;17.90;99.90
26691;DHT22;14307;51.718;8.938;2022-08-14T05:01:49;18.00;99.90
26691;DHT22;14307;51.718;8.938;2022-08-14T05:04:23;17.90;99.90
26691;DHT22;14307;51.718;8.938;2022-08-14T05:06:52;18.00;99.90
26691;DHT22;14307;51.718;8.938;2022-08-14T05:09:24;18.10;99.90
26691;DHT22;14307;51.718;8.938;2022-08-14T05:11:55;18.20;99.90
26691;DHT22;14307;51.718;8.938;2022-08-14T05:14:41;18.20;99.90
26691;DHT22;14307;51.718;8.938;2022-08-14T05:17:20;18.30;99.90
26691;DHT22;14307;51.718;8.938;2022-08-14T05:19:58;18.20;99.90
26691;DHT22;14307;51.718;8.938;2022-08-14T05:22:44;18.40;99.90
26691;DHT22;14307;51.718;8.938;2022-08-14T05:25:11;18.50;99.90
26691;DHT22;14307;51.718;8.938;2022-08-14T05:27:40;18.60;99.90
26691;DHT22;14307;51.718;8.938;2022-08-14T05:30:08;18.70;99.90
26691;DHT22;14307;51.718;8.938;2022-08-14T05:32:35;18.70;99.90
26691;DHT22;14307;51.718;8.938;2022-08-14T05:35:02;18.80;99.90
26691;DHT22;14307;51.718;8.938;2022-08-14T05:37:29;19.00;99.90
26691;DHT22;14307;51.718;8.938;2022-08-14T05:39:57;19.10;99.90
26691;DHT22;14307;51.718;8.938;2022-08-14T05:42:24;19.20;99.90
26691;DHT22;14307;51.718;8.938;2022-08-14T05:44:57;19.20;99.90
26691;DHT22;14307;51.718;8.938;2022-08-14T05:47:24;19.30;99.90
26691;DHT22;14307;51.718;8.938;2022-08-14T05:49:56;19.40;99.90
26691;DHT22;14307;51.718;8.938;2022-08-14T05:52:23;19.50;99.90
26691;DHT22;14307;51.718;8.938;2022-08-14T05:55:09;19.60;99.90
26691;DHT22;14307;51.718;8.938;2022-08-14T06:00:21;19.80;99.90
26691;DHT22;14307;51.718;8.938;2022-08-14T06:02:59;19.80;99.90
26691;DHT22;14307;51.718;8.938;2022-08-14T06:05:33;19.80;99.90
26691;DHT22;14307;51.718;8.938;2022-08-14T06:08:04;19.90;99.90
26691;DHT22;14307;51.718;8.938;2022-08-14T06:10:49;19.90;99.90
26691;DHT22;14307;51.718;8.938;2022-08-14T06:13:17;20.00;99.90
26691;DHT22;14307;51.718;8.938;2022-08-14T06:15:45;20.00;99.90
26691;DHT22;14307;51.718;8.938;2022-08-14T06:18:14;20.10;99.90
26691;DHT22;14307;51.718;8.938;2022-08-14T06:20:43;20.10;99.90
26691;DHT22;14307;51.718;8.938;2022-08-14T06:23:12;20.20;99.90
26691;DHT22;14307;51.718;8.938;2022-08-14T06:25:40;20.30;99.90
26691;DHT22;14307;51.718;8.938;2022-08-14T06:28:07;20.40;99.90
26691;DHT22;14307;51.718;8.938;2022-08-14T06:30:53;20.50;99.90
26691;DHT22;14307;51.718;8.938;2022-08-14T06:33:21;20.70;99.90
26691;DHT22;14307;51.718;8.938;2022-08-14T06:35:48;20.70;99.90
26691;DHT22;14307;51.718;8.938;2022-08-14T06:38:20;20.90;99.90
26691;DHT22;14307;51.718;8.938;2022-08-14T06:40:50;21.10;99.90
26691;DHT22;14307;51.718;8.938;2022-08-14T06:43:19;21.20;99.90
26691;DHT22;14307;51.718;8.938;2022-08-14T06:45:48;21.10;99.90
26691;DHT22;14307;51.718;8.938;2022-08-14T06:48:22;21.10;99.90
26691;DHT22;14307;51.718;8.938;2022-08-14T06:50:52;21.30;99.90
26691;DHT22;14307;51.718;8.938;2022-08-14T06:53:20;21.40;99.90
26691;DHT22;14307;51.718;8.938;2022-08-14T06:55:48;21.70;99.90
26691;DHT22;14307;51.718;8.938;2022-08-14T06:58:26;21.90;99.90
26691;DHT22;14307;51.718;8.938;2022-08-14T07:00:56;22.20;99.90
26691;DHT22;14307;51.718;8.938;2022-08-14T07:03:49;22.40;99.90
26691;DHT22;14307;51.718;8.938;2022-08-14T07:06:49;22.40;99.90
26691;DHT22;14307;51.718;8.938;2022-08-14T07:09:16;22.30;99.90
26691;DHT22;14307;51.718;8.938;2022-08-14T07:11:49;22.50;99.90
26691;DHT22;14307;51.718;8.938;2022-08-14T07:14:17;22.70;99.90
26691;DHT22;14307;51.718;8.938;2022-08-14T07:16:43;22.40;99.90
26691;DHT22;14307;51.718;8.938;2022-08-14T07:19:11;22.30;99.90
26691;DHT22;14307;51.718;8.938;2022-08-14T07:21:37;22.50;99.90
26691;DHT22;14307;51.718;8.938;2022-08-14T07:24:06;22.50;99.90
26691;DHT22;14307;51.718;8.938;2022-08-14T07:26:47;22.30;99.90
26691;DHT22;14307;51.718;8.938;2022-08-14T07:29:14;22.10;99.90
26691;DHT22;14307;51.718;8.938;2022-08-14T07:31:43;22.20;99.90
26691;DHT22;14307;51.718;8.938;2022-08-14T07:34:09;22.60;99.90
26691;DHT22;14307;51.718;8.938;2022-08-14T07:36:37;22.80;99.90
26691;DHT22;14307;51.718;8.938;2022-08-14T07:39:23;23.00;99.90
26691;DHT22;14307;51.718;8.938;2022-08-14T07:41:53;23.30;99.90
26691;DHT22;14307;51.718;8.938;2022-08-14T07:44:20;23.30;99.90
26691;DHT22;14307;51.718;8.938;2022-08-14T07:47:02;23.50;99.90
26691;DHT22;14307;51.718;8.938;2022-08-14T07:49:33;23.50;99.90
26691;DHT22;14307;51.718;8.938;2022-08-14T07:52:03;23.80;99.90
26691;DHT22;14307;51.718;8.938;2022-08-14T07:54:30;24.00;99.90
26691;DHT22;14307;51.718;8.938;2022-08-14T07:57:00;24.40;99.90
26691;DHT22;14307;51.718;8.938;2022-08-14T07:59:39;24.70;99.90
26691;DHT22;14307;51.718;8.938;2022-08-14T08:02:14;25.10;99.90
26691;DHT22;14307;51.718;8.938;2022-08-14T08:04:51;25.30;99.90
26691;DHT22;14307;51.718;8.938;2022-08-14T08:07:25;25.30;99.90
26691;DHT22;14307;51.718;8.938;2022-08-14T08:09:56;25.20;99.90
26691;DHT22;14307;51.718;8.938;2022-08-14T08:12:26;25.00;99.90
26691;DHT22;14307;51.718;8.938;2022-08-14T08:15:06;24.90;99.90
26691;DHT22;14307;51.718;8.938;2022-08-14T08:17:37;25.00;99.90
26691;DHT22;14307;51.718;8.938;2022-08-14T08:20:21;25.20;99.90
26691;DHT22;14307;51.718;8.938;2022-08-14T08:22:54;25.10;99.90
26691;DHT22;14307;51.718;8.938;2022-08-14T08:25:34;25.10;99.90
26691;DHT22;14307;51.718;8.938;2022-08-14T08:30:56;25.20;99.90
26691;DHT22;14307;51.718;8.938;2022-08-14T08:33:31;25.30;99.90
26691;DHT22;14307;51.718;8.938;2022-08-14T08:36:05;25.40;99.90
26691;DHT22;14307;51.718;8.938;2022-08-14T08:38:33;25.80;99.90
26691;DHT22;14307;51.718;8.938;2022-08-14T08:41:20;25.40;99.90
26691;DHT22;14307;51.718;8.938;2022-08-14T08:43:47;25.60;99.90
26691;DHT22;14307;51.718;8.938;2022-08-14T08:46:19;25.90;99.90
26691;DHT22;14307;51.718;8.938;2022-08-14T08:48:52;26.00;99.90
26691;DHT22;14307;51.718;8.938;2022-08-14T08:51:24;26.30;99.90
26691;DHT22;14307;51.718;8.938;2022-08-14T08:54:12;25.80;99.90
26691;DHT22;14307;51.718;8.938;2022-08-14T08:56:47;25.50;99.90
26691;DHT22;14307;51.718;8.938;2022-08-14T09:02:08;25.20;99.90
26691;DHT22;14307;51.718;8.938;2022-08-14T09:04:38;25.60;99.90
26691;DHT22;14307;51.718;8.938;2022-08-14T09:07:25;25.90;99.90
26691;DHT22;14307;51.718;8.938;2022-08-14T09:09:53;26.40;99.90
26691;DHT22;14307;51.718;8.938;2022-08-14T09:12:25;26.90;99.90
26691;DHT22;14307;51.718;8.938;2022-08-14T09:14:55;27.10;99.90
26691;DHT22;14307;51.718;8.938;2022-08-14T09:17:23;27.10;99.90
26691;DHT22;14307;51.718;8.938;2022-08-14T09:19:52;26.60;99.90
26691;DHT22;14307;51.718;8.938;2022-08-14T09:22:19;27.00;99.90
26691;DHT22;14307;51.718;8.938;2022-08-14T09:25:04;27.00;99.90
26691;DHT22;14307;51.718;8.938;2022-08-14T09:27:34;27.30;99.90
26691;DHT22;14307;51.718;8.938;2022-08-14T09:30:01;27.30;99.90
26691;DHT22;14307;51.718;8.938;2022-08-14T09:38:43;26.00;99.90
26691;DHT22;14307;51.718;8.938;2022-08-14T09:44:02;26.80;99.90
26691;DHT22;14307;51.718;8.938;2022-08-14T09:46:33;27.50;99.90
26691;DHT22;14307;51.718;8.938;2022-08-14T09:49:06;27.70;99.90
26691;DHT22;14307;51.718;8.938;2022-08-14T09:51:42;27.80;99.90
26691;DHT22;14307;51.718;8.938;2022-08-14T09:54:35;27.70;99.90
26691;DHT22;14307;51.718;8.938;2022-08-14T09:57:03;27.40;99.90
26691;DHT22;14307;51.718;8.938;2022-08-14T09:59:45;26.80;99.90
26691;DHT22;14307;51.718;8.938;2022-08-14T10:02:30;27.00;99.90
26691;DHT22;14307;51.718;8.938;2022-08-14T10:05:08;26.80;99.90
26691;DHT22;14307;51.718;8.938;2022-08-14T10:07:46;27.20;99.90
26691;DHT22;14307;51.718;8.938;2022-08-14T10:13:01;27.10;99.90
26691;DHT22;14307;51.718;8.938;2022-08-14T10:15:32;27.50;99.90
26691;DHT22;14307;51.718;8.938;2022-08-14T10:20:58;27.60;99.90
26691;DHT22;14307;51.718;8.938;2022-08-14T10:23:38;28.10;99.90
26691;DHT22;14307;51.718;8.938;2022-08-14T10:26:06;28.20;99.90
26691;DHT22;14307;51.718;8.938;2022-08-14T10:28:39;28.10;99.90
26691;DHT22;14307;51.718;8.938;2022-08-14T10:31:29;28.00;99.90
26691;DHT22;14307;51.718;8.938;2022-08-14T10:34:12;28.20;99.90
26691;DHT22;14307;51.718;8.938;2022-08-14T10:36:45;28.60;99.90
26691;DHT22;14307;51.718;8.938;2022-08-14T10:39:28;28.70;99.90
26691;DHT22;14307;51.718;8.938;2022-08-14T10:42:04;28.70;99.90
26691;DHT22;14307;51.718;8.938;2022-08-14T10:44:46;28.10;99.90
26691;DHT22;14307;51.718;8.938;2022-08-14T10:47:18;27.80;99.90
26691;DHT22;14307;51.718;8.938;2022-08-14T10:50:06;28.10;99.90
26691;DHT22;14307;51.718;8.938;2022-08-14T10:52:37;28.30;99.90
26691;DHT22;14307;51.718;8.938;2022-08-14T10:55:09;28.60;99.90
26691;DHT22;14307;51.718;8.938;2022-08-14T10:57:53;28.50;99.90
26691;DHT22;14307;51.718;8.938;2022-08-14T11:00:22;28.30;99.90
26691;DHT22;14307;51.718;8.938;2022-08-14T11:03:03;28.00;99.90
26691;DHT22;14307;51.718;8.938;2022-08-14T11:05:44;28.20;99.90
26691;DHT22;14307;51.718;8.938;2022-08-14T11:08:13;28.00;99.90
26691;DHT22;14307;51.718;8.938;2022-08-14T11:10:42;27.90;99.90
26691;DHT22;14307;51.718;8.938;2022-08-14T11:13:14;28.00;99.90
26691;DHT22;14307;51.718;8.938;2022-08-14T11:15:42;28.20;99.90
26691;DHT22;14307;51.718;8.938;2022-08-14T11:18:10;28.80;99.90
26691;DHT22;14307;51.718;8.938;2022-08-14T11:20:57;28.70;99.90
26691;DHT22;14307;51.718;8.938;2022-08-14T11:23:33;28.50;99.90
26691;DHT22;14307;51.718;8.938;2022-08-14T11:26:06;28.60;99.90
26691;DHT22;14307;51.718;8.938;2022-08-14T11:28:38;28.30;99.90
26691;DHT22;14307;51.718;8.938;2022-08-14T11:31:17;28.60;99.90
26691;DHT22;14307;51.718;8.938;2022-08-14T11:33:48;28.00;99.90
26691;DHT22;14307;51.718;8.938;2022-08-14T11:36:14;28.00;99.90
26691;DHT22;14307;51.718;8.938;2022-08-14T11:38:45;28.00;99.90
26691;DHT22;14307;51.718;8.938;2022-08-14T11:41:13;28.00;99.90
26691;DHT22;14307;51.718;8.938;2022-08-14T11:43:45;28.30;99.90
26691;DHT22;14307;51.718;8.938;2022-08-14T11:46:24;28.80;99.90
26691;DHT22;14307;51.718;8.938;2022-08-14T11:48:56;28.50;99.90
26691;DHT22;14307;51.718;8.938;2022-08-14T11:51:30;28.20;99.90
26691;DHT22;14307;51.718;8.938;2022-08-14T11:54:17;28.00;99.90
26691;DHT22;14307;51.718;8.938;2022-08-14T11:56:46;28.20;99.90
26691;DHT22;14307;51.718;8.938;2022-08-14T11:59:19;28.80;99.90
26691;DHT22;14307;51.718;8.938;2022-08-14T12:02:13;29.10;99.90
26691;DHT22;14307;51.718;8.938;2022-08-14T12:05:00;29.60;99.90
26691;DHT22;14307;51.718;8.938;2022-08-14T12:07:30;30.00;99.90
26691;DHT22;14307;51.718;8.938;2022-08-14T12:09:58;30.30;99.90
26691;DHT22;14307;51.718;8.938;2022-08-14T12:12:27;29.60;99.90
26691;DHT22;14307;51.718;8.938;2022-08-14T12:15:13;29.30;99.90
26691;DHT22;14307;51.718;8.938;2022-08-14T12:17:45;29.40;99.90
26691;DHT22;14307;51.718;8.938;2022-08-14T12:20:15;29.00;99.90
26691;DHT22;14307;51.718;8.938;2022-08-14T12:23:02;29.20;99.90
26691;DHT22;14307;51.718;8.938;2022-08-14T12:25:31;29.50;99.90
26691;DHT22;14307;51.718;8.938;2022-08-14T12:28:02;29.50;99.90
26691;DHT22;14307;51.718;8.938;2022-08-14T12:30:52;29.70;99.90
26691;DHT22;14307;51.718;8.938;2022-08-14T12:33:30;29.70;99.90
26691;DHT22;14307;51.718;8.938;2022-08-14T12:36:02;29.30;99.90
26691;DHT22;14307;51.718;8.938;2022-08-14T12:38:42;29.00;99.90
26691;DHT22;14307;51.718;8.938;2022-08-14T12:41:18;29.20;99.90
26691;DHT22;14307;51.718;8.938;2022-08-14T12:43:59;29.50;99.90
26691;DHT22;14307;51.718;8.938;2022-08-14T12:46:37;29.50;99.90
26691;DHT22;14307;51.718;8.938;2022-08-14T12:49:14;29.10;99.90
26691;DHT22;14307;51.718;8.938;2022-08-14T12:51:55;29.70;99.90
26691;DHT22;14307;51.718;8.938;2022-08-14T12:54:22;30.20;99.90
26691;DHT22;14307;51.718;8.938;2022-08-14T12:57:10;29.80;99.90
26691;DHT22;14307;51.718;8.938;2022-08-14T12:59:44;29.20;99.90
26691;DHT22;14307;51.718;8.938;2022-08-14T13:02:22;29.40;99.90
26691;DHT22;14307;51.718;8.938;2022-08-14T13:04:55;29.30;99.90
26691;DHT22;14307;51.718;8.938;2022-08-14T13:07:26;29.20;99.90
26691;DHT22;14307;51.718;8.938;2022-08-14T13:09:59;29.70;99.90
26691;DHT22;14307;51.718;8.938;2022-08-14T13:12:48;29.90;99.90
26691;DHT22;14307;51.718;8.938;2022-08-14T13:15:35;29.90;99.90
26691;DHT22;14307;51.718;8.938;2022-08-14T13:18:08;30.20;99.90
26691;DHT22;14307;51.718;8.938;2022-08-14T13:20:36;29.90;99.90
26691;DHT22;14307;51.718;8.938;2022-08-14T13:23:03;29.70;99.90
26691;DHT22;14307;51.718;8.938;2022-08-14T13:25:33;29.60;99.90
26691;DHT22;14307;51.718;8.938;2022-08-14T13:28:03;29.90;99.90
26691;DHT22;14307;51.718;8.938;2022-08-14T13:30:37;30.00;99.90
26691;DHT22;14307;51.718;8.938;2022-08-14T13:33:06;29.70;99.90
26691;DHT22;14307;51.718;8.938;2022-08-14T13:35:40;29.50;99.90
26691;DHT22;14307;51.718;8.938;2022-08-14T13:38:11;29.20;99.90
26691;DHT22;14307;51.718;8.938;2022-08-14T13:40:39;28.80;99.90
26691;DHT22;14307;51.718;8.938;2022-08-14T13:43:07;28.90;99.90
26691;DHT22;14307;51.718;8.938;2022-08-14T13:45:34;28.70;99.90
26691;DHT22;14307;51.718;8.938;2022-08-14T13:48:22;28.70;99.90
26691;DHT22;14307;51.718;8.938;2022-08-14T13:51:05;28.40;99.90
26691;DHT22;14307;51.718;8.938;2022-08-14T13:53:43;28.50;99.90
26691;DHT22;14307;51.718;8.938;2022-08-14T13:56:31;28.70;99.90
26691;DHT22;14307;51.718;8.938;2022-08-14T13:59:03;28.70;99.90
26691;DHT22;14307;51.718;8.938;2022-08-14T14:01:30;28.80;99.90
26691;DHT22;14307;51.718;8.938;2022-08-14T14:04:13;29.00;99.90
26691;DHT22;14307;51.718;8.938;2022-08-14T14:06:47;29.10;99.90
26691;DHT22;14307;51.718;8.938;2022-08-14T14:09:19;29.60;99.90
26691;DHT22;14307;51.718;8.938;2022-08-14T14:11:46;30.20;99.90
26691;DHT22;14307;51.718;8.938;2022-08-14T14:14:20;30.60;99.90
26691;DHT22;14307;51.718;8.938;2022-08-14T14:17:09;30.20;99.90
26691;DHT22;14307;51.718;8.938;2022-08-14T14:19:39;29.70;99.90
26691;DHT22;14307;51.718;8.938;2022-08-14T14:22:06;30.00;99.90
26691;DHT22;14307;51.718;8.938;2022-08-14T14:24:35;29.90;99.90
26691;DHT22;14307;51.718;8.938;2022-08-14T14:27:09;29.80;99.90
26691;DHT22;14307;51.718;8.938;2022-08-14T14:29:58;29.90;99.90
26691;DHT22;14307;51.718;8.938;2022-08-14T14:32:30;29.70;99.90
26691;DHT22;14307;51.718;8.938;2022-08-14T14:35:01;29.40;99.90
26691;DHT22;14307;51.718;8.938;2022-08-14T14:37:29;29.40;99.90
26691;DHT22;14307;51.718;8.938;2022-08-14T14:39:57;29.70;99.90
26691;DHT22;14307;51.718;8.938;2022-08-14T14:42:47;30.10;99.90
26691;DHT22;14307;51.718;8.938;2022-08-14T14:45:21;30.30;99.90
26691;DHT22;14307;51.718;8.938;2022-08-14T14:47:51;30.50;99.90
26691;DHT22;14307;51.718;8.938;2022-08-14T14:50:24;30.90;99.90
26691;DHT22;14307;51.718;8.938;2022-08-14T14:52:52;31.20;99.90
26691;DHT22;14307;51.718;8.938;2022-08-14T14:55:40;31.40;99.90
26691;DHT22;14307;51.718;8.938;2022-08-14T14:58:29;31.00;99.90
26691;DHT22;14307;51.718;8.938;2022-08-14T15:00:57;30.70;99.90
26691;DHT22;14307;51.718;8.938;2022-08-14T15:03:25;30.10;99.90
26691;DHT22;14307;51.718;8.938;2022-08-14T15:05:53;29.80;99.90
26691;DHT22;14307;51.718;8.938;2022-08-14T15:08:20;29.70;99.90
26691;DHT22;14307;51.718;8.938;2022-08-14T15:11:07;29.80;99.90
26691;DHT22;14307;51.718;8.938;2022-08-14T15:13:39;29.60;99.90
26691;DHT22;14307;51.718;8.938;2022-08-14T15:16:09;29.40;99.90
26691;DHT22;14307;51.718;8.938;2022-08-14T15:18:36;28.90;99.90
26691;DHT22;14307;51.718;8.938;2022-08-14T15:21:13;28.70;99.90
26691;DHT22;14307;51.718;8.938;2022-08-14T15:23:41;29.00;99.90
26691;DHT22;14307;51.718;8.938;2022-08-14T15:26:11;29.00;99.90
26691;DHT22;14307;51.718;8.938;2022-08-14T15:28:59;28.80;99.90
26691;DHT22;14307;51.718;8.938;2022-08-14T15:31:32;28.40;99.90
26691;DHT22;14307;51.718;8.938;2022-08-14T15:34:01;28.30;99.90
26691;DHT22;14307;51.718;8.938;2022-08-14T15:36:57;28.50;99.90
26691;DHT22;14307;51.718;8.938;2022-08-14T15:39:24;28.80;99.90
26691;DHT22;14307;51.718;8.938;2022-08-14T15:41:55;28.80;99.90
26691;DHT22;14307;51.718;8.938;2022-08-14T15:44:23;28.70;99.90
26691;DHT22;14307;51.718;8.938;2022-08-14T15:46:58;28.80;99.90
26691;DHT22;14307;51.718;8.938;2022-08-14T15:49:26;28.80;99.90
26691;DHT22;14307;51.718;8.938;2022-08-14T15:52:00;28.60;99.90
26691;DHT22;14307;51.718;8.938;2022-08-14T15:54:29;28.40;99.90
26691;DHT22;14307;51.718;8.938;2022-08-14T15:57:03;28.50;99.90
26691;DHT22;14307;51.718;8.938;2022-08-14T15:59:35;28.40;99.90
26691;DHT22;14307;51.718;8.938;2022-08-14T16:02:21;28.40;99.90
26691;DHT22;14307;51.718;8.938;2022-08-14T16:04:53;28.40;99.90
26691;DHT22;14307;51.718;8.938;2022-08-14T16:07:20;28.40;99.90
26691;DHT22;14307;51.718;8.938;2022-08-14T16:09:53;28.40;99.90
26691;DHT22;14307;51.718;8.938;2022-08-14T16:12:40;28.60;99.90
26691;DHT22;14307;51.718;8.938;2022-08-14T16:15:13;28.70;99.90
26691;DHT22;14307;51.718;8.938;2022-08-14T16:17:43;28.80;99.90
26691;DHT22;14307;51.718;8.938;2022-08-14T16:20:10;28.70;99.90
26691;DHT22;14307;51.718;8.938;2022-08-14T16:22:38;28.80;99.90
26691;DHT22;14307;51.718;8.938;2022-08-14T16:25:26;28.70;99.90
26691;DHT22;14307;51.718;8.938;2022-08-14T16:28:01;28.60;99.90
26691;DHT22;14307;51.718;8.938;2022-08-14T16:30:32;28.70;99.90
26691;DHT22;14307;51.718;8.938;2022-08-14T16:33:01;28.80;99.90
26691;DHT22;14307;51.718;8.938;2022-08-14T16:35:32;28.80;99.90
26691;DHT22;14307;51.718;8.938;2022-08-14T16:38:22;28.80;99.90